createdAt,value
2017-10-22T00:02:05.597Z,13.20
2017-10-22T00:04:33.860Z,13.20
2017-10-22T00:07:02.866Z,13.30
2017-10-22T00:09:31.120Z,13.20
2017-10-22T00:12:00.146Z,13.30
2017-10-22T00:14:28.395Z,13.30
2017-10-22T00:16:57.402Z,13.20
2017-10-22T00:19:25.717Z,13.20
2017-10-22T00:21:53.954Z,13.20
2017-10-22T00:24:22.190Z,13.10
2017-10-22T00:26:50.458Z,13.20
2017-10-22T00:29:18.699Z,13.20
2017-10-22T00:31:46.942Z,13.30
2017-10-22T00:34:16.483Z,13.10
2017-10-22T00:36:44.723Z,13.10
2017-10-22T00:39:12.975Z,13.10
2017-10-22T00:41:41.430Z,13.00
2017-10-22T00:44:09.674Z,13.00
2017-10-22T00:46:37.910Z,13.00
2017-10-22T00:49:06.182Z,13.00
2017-10-22T00:51:34.418Z,12.80
2017-10-22T00:54:02.661Z,12.70
2017-10-22T00:56:30.938Z,12.80
2017-10-22T00:58:59.939Z,12.80
2017-10-22T01:01:28.962Z,12.90
2017-10-22T01:03:57.322Z,12.80
2017-10-22T01:06:25.783Z,12.90
2017-10-22T01:08:54.011Z,12.80
2017-10-22T01:11:22.275Z,12.70
2017-10-22T01:13:50.522Z,12.80
2017-10-22T01:16:19.534Z,12.80
2017-10-22T01:18:47.825Z,12.80
2017-10-22T01:21:16.070Z,12.90
2017-10-22T01:23:45.079Z,12.80
2017-10-22T01:26:13.807Z,12.80
2017-10-22T01:28:42.030Z,12.80
2017-10-22T01:31:11.038Z,12.80
2017-10-22T01:33:39.310Z,12.80
2017-10-22T01:36:08.077Z,12.90
2017-10-22T01:38:37.090Z,12.90
2017-10-22T01:41:05.351Z,12.90
2017-10-22T01:43:33.598Z,13.00
2017-10-22T01:46:04.030Z,12.80
2017-10-22T01:48:32.783Z,12.70
2017-10-22T01:51:01.034Z,12.80
2017-10-22T01:53:29.278Z,12.80
2017-10-22T01:55:57.579Z,12.70
2017-10-22T01:58:26.582Z,12.70
2017-10-22T02:00:54.823Z,12.70
2017-10-22T02:03:23.087Z,12.70
2017-10-22T02:05:51.331Z,12.70
2017-10-22T02:08:19.573Z,12.70
2017-10-22T02:10:47.894Z,12.80
2017-10-22T02:13:16.146Z,12.80
2017-10-22T02:15:44.407Z,12.70
2017-10-22T02:18:12.678Z,12.80
2017-10-22T02:20:41.694Z,12.80
2017-10-22T02:23:09.938Z,12.70
2017-10-22T02:25:38.529Z,12.80
2017-10-22T02:28:06.771Z,12.70
2017-10-22T02:30:35.042Z,12.70
2017-10-22T02:33:03.612Z,12.70
2017-10-22T02:35:31.851Z,12.70
2017-10-22T02:38:01.247Z,12.50
2017-10-22T02:40:30.349Z,12.40
2017-10-22T02:42:58.595Z,12.40
2017-10-22T02:45:26.834Z,12.20
2017-10-22T02:47:55.107Z,12.20
2017-10-22T02:50:23.348Z,12.10
2017-10-22T02:52:51.591Z,11.90
2017-10-22T02:55:19.935Z,11.90
2017-10-22T02:57:48.178Z,11.90
2017-10-22T03:00:16.424Z,12.00
2017-10-22T03:02:44.691Z,12.10
2017-10-22T03:05:12.967Z,12.00
2017-10-22T03:07:41.907Z,12.00
2017-10-22T03:10:10.232Z,12.10
2017-10-22T03:12:38.475Z,12.10
2017-10-22T03:15:06.719Z,12.10
2017-10-22T03:17:35.031Z,12.10
2017-10-22T03:20:03.287Z,12.10
2017-10-22T03:22:32.298Z,11.80
2017-10-22T03:25:00.584Z,11.80
2017-10-22T03:27:28.830Z,11.80
2017-10-22T03:29:57.856Z,11.90
2017-10-22T03:32:26.115Z,11.90
2017-10-22T03:34:54.357Z,11.90
2017-10-22T03:37:22.594Z,11.80
2017-10-22T03:39:51.455Z,11.60
2017-10-22T03:42:19.720Z,11.50
2017-10-22T03:44:48.735Z,11.40
2017-10-22T03:47:17.007Z,11.40
2017-10-22T03:49:45.255Z,11.50
2017-10-22T03:52:13.500Z,11.60
2017-10-22T03:54:41.770Z,11.60
2017-10-22T03:57:10.010Z,11.70
2017-10-22T03:59:38.259Z,11.60
2017-10-22T04:02:06.739Z,11.60
2017-10-22T04:04:34.991Z,11.60
2017-10-22T04:07:03.238Z,11.50
2017-10-22T04:09:31.663Z,11.50
2017-10-22T04:11:59.910Z,11.30
2017-10-22T04:14:28.158Z,11.30
2017-10-22T04:16:56.422Z,11.20
2017-10-22T04:19:25.446Z,11.20
2017-10-22T04:21:53.679Z,11.20
2017-10-22T04:24:22.211Z,11.30
2017-10-22T04:26:50.451Z,11.20
2017-10-22T04:29:18.690Z,11.10
2017-10-22T04:31:46.959Z,11.10
2017-10-22T04:34:15.210Z,10.90
2017-10-22T04:36:43.460Z,10.90
2017-10-22T04:39:12.487Z,10.90
2017-10-22T04:41:40.998Z,10.90
2017-10-22T04:44:09.247Z,10.90
2017-10-22T04:46:37.928Z,10.90
2017-10-22T04:49:06.171Z,10.90
2017-10-22T04:51:35.183Z,10.90
2017-10-22T04:54:03.451Z,10.90
2017-10-22T04:56:31.686Z,10.90
2017-10-22T04:58:59.934Z,10.90
2017-10-22T05:01:28.517Z,10.80
2017-10-22T05:03:56.770Z,10.80
2017-10-22T05:06:25.020Z,11.00
2017-10-22T05:08:53.359Z,11.00
2017-10-22T05:11:21.604Z,10.90
2017-10-22T05:13:49.846Z,11.00
2017-10-22T05:16:18.123Z,11.00
2017-10-22T05:18:47.143Z,10.90
2017-10-22T05:21:15.390Z,10.80
2017-10-22T05:23:43.659Z,10.90
2017-10-22T05:26:11.902Z,10.80
2017-10-22T05:28:40.151Z,10.90
2017-10-22T05:31:08.602Z,10.90
2017-10-22T05:33:36.864Z,10.90
2017-10-22T05:36:05.086Z,10.80
2017-10-22T05:38:33.355Z,10.80
2017-10-22T05:41:01.598Z,10.90
2017-10-22T05:43:29.999Z,10.90
2017-10-22T05:45:59.041Z,10.80
2017-10-22T05:48:27.276Z,10.80
2017-10-22T05:50:56.287Z,10.90
2017-10-22T05:53:24.807Z,10.90
2017-10-22T05:55:53.047Z,10.90
2017-10-22T05:58:21.294Z,10.90
2017-10-22T06:00:50.514Z,10.90
2017-10-22T06:03:18.761Z,10.80
2017-10-22T06:05:47.016Z,10.70
2017-10-22T06:08:15.267Z,10.70
2017-10-22T06:10:43.522Z,10.70
2017-10-22T06:13:11.811Z,10.70
2017-10-22T06:15:40.506Z,10.70
2017-10-22T06:18:08.746Z,10.90
2017-10-22T06:20:36.991Z,10.90
2017-10-22T06:23:05.259Z,11.10
2017-10-22T06:25:33.502Z,11.20
2017-10-22T06:28:01.756Z,11.20
2017-10-22T06:30:30.783Z,11.00
2017-10-22T06:32:59.019Z,11.00
2017-10-22T06:35:28.035Z,11.00
2017-10-22T06:37:56.654Z,11.00
2017-10-22T06:40:24.882Z,11.00
2017-10-22T06:42:53.136Z,11.20
2017-10-22T06:45:21.646Z,11.30
2017-10-22T06:47:49.899Z,11.30
2017-10-22T06:50:18.154Z,11.10
2017-10-22T06:52:46.436Z,11.10
2017-10-22T06:55:14.670Z,11.20
2017-10-22T06:57:42.919Z,11.20
2017-10-22T07:00:12.355Z,11.20
2017-10-22T07:02:40.602Z,11.20
2017-10-22T07:05:08.858Z,11.10
2017-10-22T07:07:37.512Z,11.20
2017-10-22T07:10:05.753Z,11.20
2017-10-22T07:12:33.994Z,11.10
2017-10-22T07:15:02.265Z,11.20
2017-10-22T07:17:30.530Z,11.20
2017-10-22T07:19:58.906Z,11.20
2017-10-22T07:22:27.279Z,11.30
2017-10-22T07:24:55.531Z,11.40
2017-10-22T07:27:23.775Z,11.40
2017-10-22T07:29:52.054Z,11.50
2017-10-22T07:32:20.299Z,11.70
2017-10-22T07:34:48.574Z,11.80
2017-10-22T07:37:16.850Z,11.80
2017-10-22T07:39:45.322Z,11.90
2017-10-22T07:42:13.591Z,12.00
2017-10-22T07:44:42.175Z,12.10
2017-10-22T07:47:10.627Z,12.10
2017-10-22T07:49:38.870Z,12.10
2017-10-22T07:52:07.939Z,12.20
2017-10-22T07:54:36.192Z,12.20
2017-10-22T07:57:04.442Z,12.20
2017-10-22T07:59:32.733Z,12.20
2017-10-22T08:02:00.961Z,12.10
2017-10-22T08:04:29.222Z,12.20
2017-10-22T08:06:57.879Z,12.10
2017-10-22T08:09:26.142Z,12.10
2017-10-22T08:11:54.573Z,12.10
2017-10-22T08:14:23.012Z,12.00
2017-10-22T08:16:51.255Z,12.00
2017-10-22T08:19:20.626Z,12.10
2017-10-22T08:21:48.894Z,12.10
2017-10-22T08:24:17.155Z,12.10
2017-10-22T08:26:45.405Z,12.20
2017-10-22T08:29:13.736Z,12.20
2017-10-22T08:31:41.981Z,12.20
2017-10-22T08:34:10.227Z,12.20
2017-10-22T08:36:38.550Z,12.20
2017-10-22T08:39:06.787Z,12.30
2017-10-22T08:41:35.042Z,12.30
2017-10-22T08:44:04.103Z,12.30
2017-10-22T08:46:32.370Z,12.30
2017-10-22T08:49:00.894Z,12.50
2017-10-22T08:51:30.130Z,12.90
2017-10-22T08:53:58.378Z,12.90
2017-10-22T08:56:30.619Z,13.00
2017-10-22T08:58:58.873Z,13.10
2017-10-22T09:01:27.118Z,13.20
2017-10-22T09:03:55.364Z,13.20
2017-10-22T09:06:24.198Z,13.20
2017-10-22T09:08:52.443Z,13.10
2017-10-22T09:11:20.886Z,13.00
2017-10-22T09:13:49.366Z,13.10
2017-10-22T09:16:17.618Z,13.00
2017-10-22T09:18:45.880Z,13.10
2017-10-22T09:21:14.146Z,13.10
2017-10-22T09:23:42.450Z,13.00
2017-10-22T09:26:10.779Z,13.00
2017-10-22T09:28:39.055Z,13.00
2017-10-22T09:31:07.318Z,13.00
2017-10-22T09:33:35.574Z,13.00
2017-10-22T09:36:04.742Z,13.00
2017-10-22T09:38:32.990Z,13.00
2017-10-22T09:41:02.003Z,12.80
2017-10-22T09:43:30.277Z,12.80
2017-10-22T09:45:58.518Z,12.80
2017-10-22T09:48:26.939Z,12.90
2017-10-22T09:50:55.209Z,13.00
2017-10-22T09:53:23.466Z,13.10
2017-10-22T09:55:51.713Z,13.10
2017-10-22T09:58:20.134Z,13.20
2017-10-22T10:00:48.376Z,13.40
2017-10-22T10:03:16.628Z,13.60
2017-10-22T10:05:45.870Z,14.00
2017-10-22T10:08:15.027Z,14.20
2017-10-22T10:10:43.252Z,14.20
2017-10-22T10:13:12.282Z,14.00
2017-10-22T10:15:40.535Z,13.90
2017-10-22T10:18:08.782Z,13.90
2017-10-22T10:20:37.440Z,13.90
2017-10-22T10:23:05.722Z,13.90
2017-10-22T10:25:33.978Z,14.00
2017-10-22T10:28:02.260Z,13.90
2017-10-22T10:30:30.535Z,14.30
2017-10-22T10:32:58.840Z,14.70
2017-10-22T10:35:27.091Z,15.00
2017-10-22T10:37:57.557Z,15.10
2017-10-22T10:40:26.582Z,14.90
2017-10-22T10:42:54.918Z,14.80
2017-10-22T10:45:23.182Z,14.80
2017-10-22T10:47:51.414Z,14.60
2017-10-22T10:50:19.679Z,14.50
2017-10-22T10:52:47.922Z,14.50
2017-10-22T10:55:16.191Z,14.50
2017-10-22T10:57:44.461Z,14.40
2017-10-22T11:00:12.708Z,14.50
2017-10-22T11:02:40.984Z,14.60
2017-10-22T11:05:09.488Z,14.60
2017-10-22T11:07:37.727Z,14.50
2017-10-22T11:10:06.023Z,14.40
2017-10-22T11:12:34.287Z,14.30
2017-10-22T11:15:02.542Z,14.50
2017-10-22T11:17:31.560Z,15.50
2017-10-22T11:19:59.830Z,15.50
2017-10-22T11:22:28.087Z,16.20
2017-10-22T11:24:57.110Z,16.90
2017-10-22T11:27:25.863Z,16.80
2017-10-22T11:29:54.102Z,16.80
2017-10-22T11:32:22.346Z,16.60
2017-10-22T11:34:50.623Z,16.60
2017-10-22T11:37:19.134Z,16.50
2017-10-22T11:39:47.518Z,16.30
2017-10-22T11:42:15.773Z,16.00
2017-10-22T11:44:44.019Z,15.60
2017-10-22T11:47:12.267Z,15.40
2017-10-22T11:49:41.829Z,15.30
2017-10-22T11:52:10.199Z,15.10
2017-10-22T11:54:38.466Z,15.30
2017-10-22T11:57:06.722Z,15.50
2017-10-22T11:59:35.742Z,15.40
2017-10-22T12:02:03.995Z,15.30
2017-10-22T12:04:33.046Z,15.20
2017-10-22T12:07:01.299Z,15.20
2017-10-22T12:09:29.711Z,15.20
2017-10-22T12:11:58.072Z,15.20
2017-10-22T12:14:26.506Z,15.20
2017-10-22T12:16:54.745Z,15.40
2017-10-22T12:19:23.013Z,15.60
2017-10-22T12:21:53.455Z,15.50
2017-10-22T12:24:21.704Z,15.30
2017-10-22T12:26:49.967Z,15.20
2017-10-22T12:29:18.219Z,15.20
2017-10-22T12:31:47.227Z,15.20
2017-10-22T12:34:15.848Z,15.20
2017-10-22T12:36:44.075Z,15.20
2017-10-22T12:39:13.082Z,15.00
2017-10-22T12:41:41.354Z,15.00
2017-10-22T12:44:09.619Z,15.00
2017-10-22T12:46:37.848Z,15.00
2017-10-22T12:49:06.119Z,15.00
2017-10-22T12:51:34.362Z,15.00
2017-10-22T12:54:02.687Z,15.00
2017-10-22T12:56:31.511Z,15.10
2017-10-22T12:58:59.755Z,15.10
2017-10-22T13:01:28.003Z,15.40
2017-10-22T13:03:56.266Z,15.40
2017-10-22T13:06:24.507Z,15.50
2017-10-22T13:08:52.853Z,15.50
2017-10-22T13:11:21.113Z,15.40
2017-10-22T13:13:49.359Z,15.30
2017-10-22T13:16:17.615Z,15.30
2017-10-22T13:18:46.250Z,15.10
2017-10-22T13:21:14.487Z,15.10
2017-10-22T13:23:43.494Z,16.00
2017-10-22T13:26:11.763Z,16.00
2017-10-22T13:28:40.007Z,16.10
2017-10-22T13:31:08.281Z,16.00
2017-10-22T13:33:36.574Z,16.30
2017-10-22T13:36:04.817Z,16.00
2017-10-22T13:38:33.058Z,15.70
2017-10-22T13:41:01.668Z,15.50
2017-10-22T13:43:29.944Z,15.90
2017-10-22T13:45:58.170Z,16.30
2017-10-22T13:48:26.455Z,16.10
2017-10-22T13:50:55.381Z,16.60
2017-10-22T13:53:23.623Z,18.20
2017-10-22T13:55:51.891Z,17.80
2017-10-22T13:58:21.194Z,16.60
2017-10-22T14:00:50.202Z,16.30
2017-10-22T14:03:18.914Z,16.30
2017-10-22T14:05:47.158Z,16.10
2017-10-22T14:08:15.411Z,15.90
2017-10-22T14:10:43.675Z,15.50
2017-10-22T14:13:11.950Z,15.20
2017-10-22T14:15:40.191Z,15.10
2017-10-22T14:18:08.458Z,15.00
2017-10-22T14:20:36.711Z,14.80
2017-10-22T14:23:05.867Z,14.70
2017-10-22T14:25:34.633Z,14.70
2017-10-22T14:28:02.871Z,14.70
2017-10-22T14:30:31.887Z,14.60
2017-10-22T14:33:00.204Z,14.60
2017-10-22T14:35:29.052Z,14.50
2017-10-22T14:37:58.188Z,14.60
2017-10-22T14:40:26.439Z,14.60
2017-10-22T14:42:54.676Z,14.60
2017-10-22T14:45:23.017Z,14.60
2017-10-22T14:47:51.886Z,14.70
2017-10-22T14:50:20.127Z,14.60
2017-10-22T14:52:49.141Z,14.60
2017-10-22T14:55:19.441Z,14.50
2017-10-22T14:57:49.636Z,14.20
2017-10-22T15:00:17.882Z,14.20
2017-10-22T15:02:46.150Z,14.10
2017-10-22T15:05:14.503Z,14.10
2017-10-22T15:07:43.528Z,13.90
2017-10-22T15:10:11.841Z,13.90
2017-10-22T15:12:40.080Z,13.80
2017-10-22T15:15:08.339Z,13.70
2017-10-22T15:17:36.602Z,13.70
2017-10-22T15:20:05.614Z,13.60
2017-10-22T15:22:38.057Z,13.60
2017-10-22T15:25:07.222Z,13.30
2017-10-22T15:27:35.442Z,13.30
2017-10-22T15:30:03.947Z,12.90
2017-10-22T15:32:32.203Z,12.70
2017-10-22T15:35:01.220Z,12.60
2017-10-22T15:37:29.498Z,12.50
2017-10-22T15:39:57.748Z,12.50
2017-10-22T15:42:25.991Z,12.50
2017-10-22T15:44:54.381Z,12.60
2017-10-22T15:47:22.635Z,12.70
2017-10-22T15:49:50.880Z,12.70
2017-10-22T15:52:19.600Z,12.80
2017-10-22T15:54:47.832Z,12.80
2017-10-22T15:57:16.087Z,12.80
2017-10-22T15:59:44.694Z,12.80
2017-10-22T16:02:13.690Z,12.60
2017-10-22T16:04:41.934Z,12.60
2017-10-22T16:07:10.204Z,12.60
2017-10-22T16:09:38.452Z,12.50
2017-10-22T16:12:06.855Z,12.50
2017-10-22T16:14:35.614Z,12.50
2017-10-22T16:17:03.862Z,12.50
2017-10-22T16:19:32.111Z,12.60
2017-10-22T16:22:00.378Z,12.50
2017-10-22T16:24:28.750Z,12.50
2017-10-22T16:26:57.000Z,12.40
2017-10-22T16:29:25.255Z,12.40
2017-10-22T16:31:53.499Z,12.40
2017-10-22T16:34:21.738Z,12.30
2017-10-22T16:36:50.095Z,12.30
2017-10-22T16:39:18.333Z,12.30
2017-10-22T16:41:47.399Z,12.20
2017-10-22T16:44:15.796Z,12.20
2017-10-22T16:46:44.159Z,12.10
2017-10-22T16:49:12.406Z,12.00
2017-10-22T16:51:40.667Z,11.90
2017-10-22T16:54:08.915Z,11.90
2017-10-22T16:56:37.930Z,11.90
2017-10-22T16:59:06.280Z,11.90
2017-10-22T17:01:34.784Z,11.90
2017-10-22T17:04:03.039Z,11.90
2017-10-22T17:06:31.346Z,11.90
2017-10-22T17:08:59.599Z,11.90
2017-10-22T17:11:28.619Z,11.90
2017-10-22T17:13:56.897Z,11.90
2017-10-22T17:16:25.147Z,11.90
2017-10-22T17:18:53.395Z,12.00
2017-10-22T17:21:21.757Z,11.90
2017-10-22T17:23:50.004Z,11.90
2017-10-22T17:26:18.254Z,11.90
2017-10-22T17:28:47.306Z,11.90
2017-10-22T17:31:15.539Z,11.90
2017-10-22T17:33:43.794Z,11.90
2017-10-22T17:36:12.850Z,11.90
2017-10-22T17:38:41.227Z,11.90
2017-10-22T17:41:09.455Z,11.80
2017-10-22T17:43:38.553Z,11.80
2017-10-22T17:46:06.993Z,11.70
2017-10-22T17:48:35.231Z,11.70
2017-10-22T17:51:03.779Z,11.70
2017-10-22T17:53:32.030Z,11.70
2017-10-22T17:56:00.271Z,11.80
2017-10-22T17:58:28.538Z,11.80
2017-10-22T18:00:56.786Z,11.70
2017-10-22T18:03:25.941Z,11.70
2017-10-22T18:05:54.636Z,11.70
2017-10-22T18:08:22.880Z,11.70
2017-10-22T18:10:51.119Z,11.70
2017-10-22T18:13:19.382Z,11.70
2017-10-22T18:15:47.626Z,11.80
2017-10-22T18:18:15.879Z,11.60
2017-10-22T18:20:44.154Z,11.50
2017-10-22T18:23:12.403Z,11.60
2017-10-22T18:25:40.646Z,11.60
2017-10-22T18:28:08.954Z,11.60
2017-10-22T18:30:37.963Z,11.50
2017-10-22T18:33:07.051Z,11.50
2017-10-22T18:35:35.310Z,11.40
2017-10-22T18:38:03.549Z,11.40
2017-10-22T18:40:31.802Z,11.40
2017-10-22T18:43:00.286Z,11.40
2017-10-22T18:45:28.719Z,11.40
2017-10-22T18:47:56.966Z,11.40
2017-10-22T18:50:25.646Z,11.50
2017-10-22T18:52:54.285Z,11.50
2017-10-22T18:55:22.570Z,11.50
2017-10-22T18:57:51.663Z,11.50
2017-10-22T19:00:20.683Z,11.50
2017-10-22T19:02:48.929Z,11.50
2017-10-22T19:05:18.070Z,11.50
2017-10-22T19:07:46.721Z,11.60
2017-10-22T19:10:15.010Z,11.50
2017-10-22T19:12:44.057Z,11.50
2017-10-22T19:15:12.467Z,11.50
2017-10-22T19:17:41.938Z,11.60
2017-10-22T19:20:10.858Z,11.60
2017-10-22T19:22:39.506Z,11.60
2017-10-22T19:25:07.782Z,11.60
2017-10-22T19:27:36.163Z,11.60
2017-10-22T19:30:04.409Z,11.60
2017-10-22T19:32:32.909Z,11.60
2017-10-22T19:35:01.370Z,11.60
2017-10-22T19:37:29.618Z,11.60
2017-10-22T19:39:58.139Z,11.60
2017-10-22T19:42:26.448Z,11.60
2017-10-22T19:44:55.026Z,11.50
2017-10-22T19:47:23.636Z,11.50
2017-10-22T19:49:51.946Z,11.60
2017-10-22T19:52:20.225Z,11.60
2017-10-22T19:54:48.471Z,11.60
2017-10-22T19:57:16.886Z,11.50
2017-10-22T19:59:45.139Z,11.50
2017-10-22T20:02:14.193Z,11.50
2017-10-22T20:04:42.478Z,11.50
2017-10-22T20:07:11.199Z,11.50
2017-10-22T20:09:40.215Z,11.40
2017-10-22T20:12:08.491Z,11.40
2017-10-22T20:14:36.739Z,11.50
2017-10-22T20:17:05.762Z,11.40
2017-10-22T20:19:34.230Z,11.40
2017-10-22T20:22:02.470Z,11.40
2017-10-22T20:24:30.710Z,11.40
2017-10-22T20:26:58.983Z,11.40
2017-10-22T20:29:27.221Z,11.40
2017-10-22T20:31:56.239Z,11.40
2017-10-22T20:34:24.502Z,11.30
2017-10-22T20:36:52.759Z,11.40
2017-10-22T20:39:21.002Z,11.50
2017-10-22T20:41:49.774Z,11.50
2017-10-22T20:44:18.014Z,11.40
2017-10-22T20:46:47.061Z,11.30
2017-10-22T20:49:15.386Z,11.20
2017-10-22T20:51:43.623Z,11.20
2017-10-22T20:54:11.874Z,11.10
2017-10-22T20:56:40.136Z,11.20
2017-10-22T20:59:08.384Z,11.20
2017-10-22T21:01:37.409Z,11.20
2017-10-22T21:04:05.890Z,11.20
2017-10-22T21:06:34.133Z,11.30
2017-10-22T21:09:03.166Z,11.30
2017-10-22T21:11:31.463Z,11.30
2017-10-22T21:13:59.684Z,11.30
2017-10-22T21:16:27.930Z,11.40
2017-10-22T21:18:56.202Z,11.30
2017-10-22T21:21:24.446Z,11.30
2017-10-22T21:23:52.694Z,11.20
2017-10-22T21:26:21.867Z,11.20
2017-10-22T21:28:50.110Z,11.20
2017-10-22T21:31:18.359Z,11.10
2017-10-22T21:33:46.614Z,11.00
2017-10-22T21:36:15.638Z,10.90
2017-10-22T21:38:43.888Z,10.90
2017-10-22T21:41:12.155Z,10.90
2017-10-22T21:43:40.399Z,11.00
2017-10-22T21:46:08.649Z,11.00
2017-10-22T21:48:36.969Z,11.00
2017-10-22T21:51:05.210Z,10.90
2017-10-22T21:53:33.458Z,10.90
2017-10-22T21:56:04.782Z,10.90
2017-10-22T21:58:33.798Z,10.70
2017-10-22T22:01:02.943Z,10.70
2017-10-22T22:03:31.198Z,10.70
2017-10-22T22:05:59.448Z,10.60
2017-10-22T22:08:28.467Z,10.50
2017-10-22T22:10:56.958Z,10.50
2017-10-22T22:13:25.222Z,10.50
2017-10-22T22:15:53.474Z,10.40
2017-10-22T22:18:22.518Z,10.40
2017-10-22T22:20:50.757Z,10.40
2017-10-22T22:23:19.007Z,10.30
2017-10-22T22:25:47.280Z,10.40
2017-10-22T22:28:15.523Z,10.40
2017-10-22T22:30:43.763Z,10.30
2017-10-22T22:33:12.679Z,10.30
2017-10-22T22:35:40.926Z,10.30
2017-10-22T22:38:09.391Z,10.40
2017-10-22T22:40:38.430Z,10.50
2017-10-22T22:43:06.686Z,10.40
2017-10-22T22:45:34.935Z,10.40
2017-10-22T22:48:03.975Z,10.30
2017-10-22T22:50:32.218Z,10.30
2017-10-22T22:53:00.462Z,10.40
2017-10-22T22:55:28.835Z,10.30
2017-10-22T22:57:57.089Z,10.20
2017-10-22T23:00:25.323Z,10.20
2017-10-22T23:02:54.353Z,10.20
2017-10-22T23:05:22.591Z,10.20
2017-10-22T23:07:50.838Z,10.10
2017-10-22T23:10:19.561Z,10.10
2017-10-22T23:12:48.576Z,10.20
2017-10-22T23:15:16.818Z,10.20
2017-10-22T23:17:45.430Z,10.20
2017-10-22T23:20:13.679Z,10.10
2017-10-22T23:22:42.706Z,10.10
2017-10-22T23:25:10.975Z,10.10
2017-10-22T23:27:39.223Z,10.20
2017-10-22T23:30:07.461Z,10.20
2017-10-22T23:32:35.734Z,10.10
2017-10-22T23:35:03.983Z,10.00
2017-10-22T23:37:32.222Z,10.10
2017-10-22T23:40:01.576Z,10.10
2017-10-22T23:42:29.827Z,10.20
2017-10-22T23:44:58.066Z,10.20
2017-10-22T23:47:28.314Z,10.10
2017-10-22T23:49:57.326Z,10.10
2017-10-22T23:52:25.566Z,10.10
2017-10-22T23:54:53.835Z,10.10
2017-10-22T23:57:22.129Z,10.10
2017-10-22T23:59:51.146Z,10.10
